sensor_id;sensor_type;location;lat;lon;timestamp;temperature;humidity
2409;DHT22;8463;48.094;7.970;2023-02-28T00:01:06;1.00;2.60
2409;DHT22;8463;48.094;7.970;2023-02-28T00:03:32;1.10;3.00
2409;DHT22;8463;48.094;7.970;2023-02-28T00:06:01;1.10;2.50
2409;DHT22;8463;48.094;7.970;2023-02-28T00:08:27;1.10;2.00
2409;DHT22;8463;48.094;7.970;2023-02-28T00:10:53;1.10;2.30
2409;DHT22;8463;48.094;7.970;2023-02-28T00:13:19;1.20;2.80
2409;DHT22;8463;48.094;7.970;2023-02-28T00:15:45;1.20;2.70
2409;DHT22;8463;48.094;7.970;2023-02-28T00:18:11;1.10;2.90
2409;DHT22;8463;48.094;7.970;2023-02-28T00:20:37;1.10;2.90
2409;DHT22;8463;48.094;7.970;2023-02-28T00:23:05;1.20;3.40
2409;DHT22;8463;48.094;7.970;2023-02-28T00:25:30;1.20;3.30
2409;DHT22;8463;48.094;7.970;2023-02-28T00:27:56;1.20;2.70
2409;DHT22;8463;48.094;7.970;2023-02-28T00:30:23;1.10;2.70
2409;DHT22;8463;48.094;7.970;2023-02-28T00:32:50;1.20;3.50
2409;DHT22;8463;48.094;7.970;2023-02-28T00:35:16;1.20;3.80
2409;DHT22;8463;48.094;7.970;2023-02-28T00:37:42;1.20;4.00
2409;DHT22;8463;48.094;7.970;2023-02-28T00:40:11;1.20;3.30
2409;DHT22;8463;48.094;7.970;2023-02-28T00:42:40;1.30;3.10
2409;DHT22;8463;48.094;7.970;2023-02-28T00:45:06;1.20;3.30
2409;DHT22;8463;48.094;7.970;2023-02-28T00:47:32;1.20;3.60
2409;DHT22;8463;48.094;7.970;2023-02-28T00:49:58;1.20;3.90
2409;DHT22;8463;48.094;7.970;2023-02-28T00:52:23;1.20;4.10
2409;DHT22;8463;48.094;7.970;2023-02-28T00:54:49;1.20;4.10
2409;DHT22;8463;48.094;7.970;2023-02-28T00:57:15;1.20;4.20
2409;DHT22;8463;48.094;7.970;2023-02-28T00:59:41;1.30;4.30
2409;DHT22;8463;48.094;7.970;2023-02-28T01:02:06;1.30;4.60
2409;DHT22;8463;48.094;7.970;2023-02-28T01:04:32;1.40;4.40
2409;DHT22;8463;48.094;7.970;2023-02-28T01:06:58;1.40;3.30
2409;DHT22;8463;48.094;7.970;2023-02-28T01:09:23;1.40;3.60
2409;DHT22;8463;48.094;7.970;2023-02-28T01:11:49;1.30;3.70
2409;DHT22;8463;48.094;7.970;2023-02-28T01:14:16;1.20;4.40
2409;DHT22;8463;48.094;7.970;2023-02-28T01:16:43;1.20;5.00
2409;DHT22;8463;48.094;7.970;2023-02-28T01:19:08;1.20;5.10
2409;DHT22;8463;48.094;7.970;2023-02-28T01:21:34;1.20;5.10
2409;DHT22;8463;48.094;7.970;2023-02-28T01:24:03;1.20;5.10
2409;DHT22;8463;48.094;7.970;2023-02-28T01:26:29;1.10;5.00
2409;DHT22;8463;48.094;7.970;2023-02-28T01:28:55;1.10;6.10
2409;DHT22;8463;48.094;7.970;2023-02-28T01:31:21;1.10;6.70
2409;DHT22;8463;48.094;7.970;2023-02-28T01:33:47;1.10;6.60
2409;DHT22;8463;48.094;7.970;2023-02-28T01:36:23;1.10;6.50
2409;DHT22;8463;48.094;7.970;2023-02-28T01:38:49;1.20;6.90
2409;DHT22;8463;48.094;7.970;2023-02-28T01:41:33;1.20;6.10
2409;DHT22;8463;48.094;7.970;2023-02-28T01:44:05;1.20;6.70
2409;DHT22;8463;48.094;7.970;2023-02-28T01:46:34;1.20;6.70
2409;DHT22;8463;48.094;7.970;2023-02-28T01:49:14;1.30;6.50
2409;DHT22;8463;48.094;7.970;2023-02-28T01:54:14;1.30;6.90
2409;DHT22;8463;48.094;7.970;2023-02-28T01:56:49;1.30;6.90
2409;DHT22;8463;48.094;7.970;2023-02-28T01:59:23;1.30;7.30
2409;DHT22;8463;48.094;7.970;2023-02-28T02:01:50;1.30;6.50
2409;DHT22;8463;48.094;7.970;2023-02-28T02:04:16;1.20;7.00
2409;DHT22;8463;48.094;7.970;2023-02-28T02:06:44;1.20;6.80
2409;DHT22;8463;48.094;7.970;2023-02-28T02:09:12;1.10;7.00
2409;DHT22;8463;48.094;7.970;2023-02-28T02:11:42;1.10;7.70
2409;DHT22;8463;48.094;7.970;2023-02-28T02:14:32;1.10;7.40
2409;DHT22;8463;48.094;7.970;2023-02-28T02:17:20;1.10;7.80
2409;DHT22;8463;48.094;7.970;2023-02-28T02:25:49;1.20;8.00
2409;DHT22;8463;48.094;7.970;2023-02-28T02:28:39;1.10;8.10
2409;DHT22;8463;48.094;7.970;2023-02-28T02:34:28;1.20;8.20
2409;DHT22;8463;48.094;7.970;2023-02-28T02:39:56;1.10;8.90
2409;DHT22;8463;48.094;7.970;2023-02-28T02:42:29;1.00;8.60
2409;DHT22;8463;48.094;7.970;2023-02-28T02:45:11;1.00;8.80
2409;DHT22;8463;48.094;7.970;2023-02-28T02:47:41;1.00;8.90
2409;DHT22;8463;48.094;7.970;2023-02-28T02:50:13;1.00;9.40
2409;DHT22;8463;48.094;7.970;2023-02-28T02:52:47;1.00;9.50
2409;DHT22;8463;48.094;7.970;2023-02-28T02:55:16;1.00;9.50
2409;DHT22;8463;48.094;7.970;2023-02-28T02:57:58;1.00;9.30
2409;DHT22;8463;48.094;7.970;2023-02-28T03:00:31;0.90;9.50
2409;DHT22;8463;48.094;7.970;2023-02-28T03:02:58;0.90;9.80
2409;DHT22;8463;48.094;7.970;2023-02-28T03:05:41;0.90;10.20
2409;DHT22;8463;48.094;7.970;2023-02-28T03:08:08;0.90;10.10
2409;DHT22;8463;48.094;7.970;2023-02-28T03:10:41;1.00;10.20
2409;DHT22;8463;48.094;7.970;2023-02-28T03:21:11;0.90;11.30
2409;DHT22;8463;48.094;7.970;2023-02-28T03:24:11;0.90;11.10
2409;DHT22;8463;48.094;7.970;2023-02-28T03:26:50;0.90;11.30
2409;DHT22;8463;48.094;7.970;2023-02-28T03:29:33;1.00;11.00
2409;DHT22;8463;48.094;7.970;2023-02-28T03:32:11;0.90;11.30
2409;DHT22;8463;48.094;7.970;2023-02-28T03:35:32;0.90;11.20
2409;DHT22;8463;48.094;7.970;2023-02-28T03:37:35;0.90;11.60
2409;DHT22;8463;48.094;7.970;2023-02-28T03:40:09;0.90;12.10
2409;DHT22;8463;48.094;7.970;2023-02-28T03:42:40;0.90;12.10
2409;DHT22;8463;48.094;7.970;2023-02-28T03:47:53;0.90;12.20
2409;DHT22;8463;48.094;7.970;2023-02-28T03:55:30;0.80;12.50
2409;DHT22;8463;48.094;7.970;2023-02-28T03:58:24;0.80;13.10
2409;DHT22;8463;48.094;7.970;2023-02-28T04:01:15;0.70;13.40
2409;DHT22;8463;48.094;7.970;2023-02-28T04:03:42;0.60;13.90
2409;DHT22;8463;48.094;7.970;2023-02-28T04:06:15;0.60;14.20
2409;DHT22;8463;48.094;7.970;2023-02-28T04:08:41;0.60;15.00
2409;DHT22;8463;48.094;7.970;2023-02-28T04:11:23;0.60;15.00
2409;DHT22;8463;48.094;7.970;2023-02-28T04:13:49;0.60;14.70
2409;DHT22;8463;48.094;7.970;2023-02-28T04:16:15;0.60;15.50
2409;DHT22;8463;48.094;7.970;2023-02-28T04:18:43;0.60;15.80
2409;DHT22;8463;48.094;7.970;2023-02-28T04:21:10;0.60;15.90
2409;DHT22;8463;48.094;7.970;2023-02-28T04:23:36;0.60;15.50
2409;DHT22;8463;48.094;7.970;2023-02-28T04:26:02;0.60;16.20
2409;DHT22;8463;48.094;7.970;2023-02-28T04:28:27;0.50;17.10
2409;DHT22;8463;48.094;7.970;2023-02-28T04:31:02;0.50;17.10
2409;DHT22;8463;48.094;7.970;2023-02-28T04:33:32;0.40;17.50
2409;DHT22;8463;48.094;7.970;2023-02-28T04:36:07;0.40;17.70
2409;DHT22;8463;48.094;7.970;2023-02-28T04:38:35;0.40;18.30
2409;DHT22;8463;48.094;7.970;2023-02-28T04:41:01;0.40;18.70
2409;DHT22;8463;48.094;7.970;2023-02-28T04:43:28;0.40;18.90
2409;DHT22;8463;48.094;7.970;2023-02-28T04:45:55;0.40;19.20
2409;DHT22;8463;48.094;7.970;2023-02-28T04:48:25;0.40;19.70
2409;DHT22;8463;48.094;7.970;2023-02-28T04:50:51;0.30;19.70
2409;DHT22;8463;48.094;7.970;2023-02-28T04:53:17;0.30;19.70
2409;DHT22;8463;48.094;7.970;2023-02-28T04:55:43;0.30;20.50
2409;DHT22;8463;48.094;7.970;2023-02-28T04:58:09;0.30;21.60
2409;DHT22;8463;48.094;7.970;2023-02-28T05:00:35;0.20;22.20
2409;DHT22;8463;48.094;7.970;2023-02-28T05:03:01;0.20;22.90
2409;DHT22;8463;48.094;7.970;2023-02-28T05:05:29;0.20;23.50
2409;DHT22;8463;48.094;7.970;2023-02-28T05:07:55;0.20;23.40
2409;DHT22;8463;48.094;7.970;2023-02-28T05:10:22;0.20;23.70
2409;DHT22;8463;48.094;7.970;2023-02-28T05:12:50;0.10;23.90
2409;DHT22;8463;48.094;7.970;2023-02-28T05:15:18;0.20;24.60
2409;DHT22;8463;48.094;7.970;2023-02-28T05:17:44;0.20;24.90
2409;DHT22;8463;48.094;7.970;2023-02-28T05:20:10;0.10;24.70
2409;DHT22;8463;48.094;7.970;2023-02-28T05:22:39;0.10;25.10
2409;DHT22;8463;48.094;7.970;2023-02-28T05:27:35;0.10;26.40
2409;DHT22;8463;48.094;7.970;2023-02-28T05:30:00;0.00;26.40
2409;DHT22;8463;48.094;7.970;2023-02-28T05:32:28;0.10;26.30
2409;DHT22;8463;48.094;7.970;2023-02-28T05:34:54;0.10;26.80
2409;DHT22;8463;48.094;7.970;2023-02-28T05:37:20;0.10;26.80
2409;DHT22;8463;48.094;7.970;2023-02-28T05:39:46;0.10;26.80
2409;DHT22;8463;48.094;7.970;2023-02-28T05:42:11;0.00;27.70
2409;DHT22;8463;48.094;7.970;2023-02-28T05:44:37;0.00;27.90
2409;DHT22;8463;48.094;7.970;2023-02-28T05:47:03;0.00;29.00
2409;DHT22;8463;48.094;7.970;2023-02-28T05:49:28;0.00;29.20
2409;DHT22;8463;48.094;7.970;2023-02-28T05:51:54;0.00;29.50
2409;DHT22;8463;48.094;7.970;2023-02-28T05:54:20;0.00;29.90
2409;DHT22;8463;48.094;7.970;2023-02-28T05:56:45;0.00;30.70
2409;DHT22;8463;48.094;7.970;2023-02-28T05:59:14;0.00;32.00
2409;DHT22;8463;48.094;7.970;2023-02-28T06:01:44;0.00;32.20
2409;DHT22;8463;48.094;7.970;2023-02-28T06:04:14;0.10;31.50
2409;DHT22;8463;48.094;7.970;2023-02-28T06:06:43;0.10;32.00
2409;DHT22;8463;48.094;7.970;2023-02-28T06:09:10;0.10;32.70
2409;DHT22;8463;48.094;7.970;2023-02-28T06:11:36;0.10;32.50
2409;DHT22;8463;48.094;7.970;2023-02-28T06:14:03;0.00;33.40
2409;DHT22;8463;48.094;7.970;2023-02-28T06:16:30;-0.10;34.70
2409;DHT22;8463;48.094;7.970;2023-02-28T06:19:02;-0.10;34.70
2409;DHT22;8463;48.094;7.970;2023-02-28T06:21:30;-0.10;34.70
2409;DHT22;8463;48.094;7.970;2023-02-28T06:23:57;0.00;34.80
2409;DHT22;8463;48.094;7.970;2023-02-28T06:26:23;-0.10;34.80
2409;DHT22;8463;48.094;7.970;2023-02-28T06:28:49;-0.10;36.10
2409;DHT22;8463;48.094;7.970;2023-02-28T06:31:16;-0.20;36.30
2409;DHT22;8463;48.094;7.970;2023-02-28T06:33:43;-0.10;36.00
2409;DHT22;8463;48.094;7.970;2023-02-28T06:36:10;-0.10;35.70
2409;DHT22;8463;48.094;7.970;2023-02-28T06:38:36;-0.20;35.90
2409;DHT22;8463;48.094;7.970;2023-02-28T06:41:02;-0.10;35.80
2409;DHT22;8463;48.094;7.970;2023-02-28T06:43:29;-0.10;36.60
2409;DHT22;8463;48.094;7.970;2023-02-28T06:45:57;-0.10;36.30
2409;DHT22;8463;48.094;7.970;2023-02-28T06:48:25;0.50;61.10
2409;DHT22;8463;48.094;7.970;2023-02-28T06:50:51;1.60;62.90
2409;DHT22;8463;48.094;7.970;2023-02-28T06:53:16;1.30;36.40
2409;DHT22;8463;48.094;7.970;2023-02-28T06:55:42;1.00;31.60
2409;DHT22;8463;48.094;7.970;2023-02-28T06:58:07;0.70;32.90
2409;DHT22;8463;48.094;7.970;2023-02-28T07:00:43;0.50;32.60
2409;DHT22;8463;48.094;7.970;2023-02-28T07:03:09;0.30;33.30
2409;DHT22;8463;48.094;7.970;2023-02-28T07:05:39;0.20;35.00
2409;DHT22;8463;48.094;7.970;2023-02-28T07:08:05;0.20;35.00
2409;DHT22;8463;48.094;7.970;2023-02-28T07:10:32;0.20;35.60
2409;DHT22;8463;48.094;7.970;2023-02-28T07:12:58;0.20;35.00
2409;DHT22;8463;48.094;7.970;2023-02-28T07:15:24;0.20;35.00
2409;DHT22;8463;48.094;7.970;2023-02-28T07:17:50;0.10;34.90
2409;DHT22;8463;48.094;7.970;2023-02-28T07:20:16;0.10;35.60
2409;DHT22;8463;48.094;7.970;2023-02-28T07:22:42;0.00;34.80
2409;DHT22;8463;48.094;7.970;2023-02-28T07:25:08;0.00;34.80
2409;DHT22;8463;48.094;7.970;2023-02-28T07:27:34;0.00;34.20
2409;DHT22;8463;48.094;7.970;2023-02-28T07:30:00;0.00;33.60
2409;DHT22;8463;48.094;7.970;2023-02-28T07:32:27;0.00;33.30
2409;DHT22;8463;48.094;7.970;2023-02-28T07:34:53;0.00;33.70
2409;DHT22;8463;48.094;7.970;2023-02-28T07:37:19;0.00;33.30
2409;DHT22;8463;48.094;7.970;2023-02-28T07:39:45;0.00;33.70
2409;DHT22;8463;48.094;7.970;2023-02-28T07:42:11;0.00;33.10
2409;DHT22;8463;48.094;7.970;2023-02-28T07:44:41;0.10;33.80
2409;DHT22;8463;48.094;7.970;2023-02-28T07:47:10;0.10;33.50
2409;DHT22;8463;48.094;7.970;2023-02-28T07:49:37;0.20;33.20
2409;DHT22;8463;48.094;7.970;2023-02-28T07:52:04;0.30;33.70
2409;DHT22;8463;48.094;7.970;2023-02-28T07:54:30;0.40;31.60
2409;DHT22;8463;48.094;7.970;2023-02-28T07:56:56;0.40;31.90
2409;DHT22;8463;48.094;7.970;2023-02-28T07:59:21;0.40;33.00
2409;DHT22;8463;48.094;7.970;2023-02-28T08:01:47;0.40;33.00
2409;DHT22;8463;48.094;7.970;2023-02-28T08:04:16;0.40;33.00
2409;DHT22;8463;48.094;7.970;2023-02-28T08:06:41;0.50;32.70
2409;DHT22;8463;48.094;7.970;2023-02-28T08:09:07;0.50;32.50
2409;DHT22;8463;48.094;7.970;2023-02-28T08:11:33;0.50;32.10
2409;DHT22;8463;48.094;7.970;2023-02-28T08:13:58;0.50;31.80
2409;DHT22;8463;48.094;7.970;2023-02-28T08:16:24;0.50;32.40
2409;DHT22;8463;48.094;7.970;2023-02-28T08:18:51;0.50;31.90
2409;DHT22;8463;48.094;7.970;2023-02-28T08:21:18;0.60;32.30
2409;DHT22;8463;48.094;7.970;2023-02-28T08:23:45;0.70;31.50
2409;DHT22;8463;48.094;7.970;2023-02-28T08:26:11;0.70;31.20
2409;DHT22;8463;48.094;7.970;2023-02-28T08:28:37;0.80;31.50
2409;DHT22;8463;48.094;7.970;2023-02-28T08:31:08;0.90;31.60
2409;DHT22;8463;48.094;7.970;2023-02-28T08:33:34;1.00;29.00
2409;DHT22;8463;48.094;7.970;2023-02-28T08:36:00;1.10;27.50
2409;DHT22;8463;48.094;7.970;2023-02-28T08:38:25;1.20;27.50
2409;DHT22;8463;48.094;7.970;2023-02-28T08:41:00;1.20;27.50
2409;DHT22;8463;48.094;7.970;2023-02-28T08:43:27;1.10;27.50
2409;DHT22;8463;48.094;7.970;2023-02-28T08:45:54;1.10;27.80
2409;DHT22;8463;48.094;7.970;2023-02-28T08:48:19;1.20;26.00
2409;DHT22;8463;48.094;7.970;2023-02-28T08:50:58;1.30;23.60
2409;DHT22;8463;48.094;7.970;2023-02-28T08:53:24;1.40;24.80
2409;DHT22;8463;48.094;7.970;2023-02-28T08:56:03;1.40;25.80
2409;DHT22;8463;48.094;7.970;2023-02-28T08:58:32;1.40;25.50
2409;DHT22;8463;48.094;7.970;2023-02-28T09:00:58;1.50;24.10
2409;DHT22;8463;48.094;7.970;2023-02-28T09:03:24;1.70;22.00
2409;DHT22;8463;48.094;7.970;2023-02-28T09:08:19;1.80;19.10
2409;DHT22;8463;48.094;7.970;2023-02-28T09:10:44;1.90;18.90
2409;DHT22;8463;48.094;7.970;2023-02-28T09:13:10;1.90;18.90
2409;DHT22;8463;48.094;7.970;2023-02-28T09:15:37;2.10;18.40
2409;DHT22;8463;48.094;7.970;2023-02-28T09:18:03;1.90;17.40
2409;DHT22;8463;48.094;7.970;2023-02-28T09:20:29;2.00;18.10
2409;DHT22;8463;48.094;7.970;2023-02-28T09:22:55;2.00;18.50
2409;DHT22;8463;48.094;7.970;2023-02-28T09:25:21;2.10;18.20
2409;DHT22;8463;48.094;7.970;2023-02-28T09:27:46;2.30;18.20
2409;DHT22;8463;48.094;7.970;2023-02-28T09:30:13;2.30;17.40
2409;DHT22;8463;48.094;7.970;2023-02-28T09:32:38;2.20;15.50
2409;DHT22;8463;48.094;7.970;2023-02-28T09:35:05;2.20;16.00
2409;DHT22;8463;48.094;7.970;2023-02-28T09:37:31;2.20;16.60
2409;DHT22;8463;48.094;7.970;2023-02-28T09:39:57;2.20;16.60
2409;DHT22;8463;48.094;7.970;2023-02-28T09:42:31;2.20;15.70
2409;DHT22;8463;48.094;7.970;2023-02-28T09:45:00;2.20;17.30
2409;DHT22;8463;48.094;7.970;2023-02-28T09:47:31;2.20;18.60
2409;DHT22;8463;48.094;7.970;2023-02-28T09:50:06;2.20;18.80
2409;DHT22;8463;48.094;7.970;2023-02-28T09:52:34;2.20;18.10
2409;DHT22;8463;48.094;7.970;2023-02-28T09:57:44;2.20;17.60
2409;DHT22;8463;48.094;7.970;2023-02-28T10:03:06;2.10;18.70
2409;DHT22;8463;48.094;7.970;2023-02-28T10:06:12;2.00;19.00
2409;DHT22;8463;48.094;7.970;2023-02-28T10:08:37;2.10;18.80
2409;DHT22;8463;48.094;7.970;2023-02-28T10:11:08;2.20;18.20
2409;DHT22;8463;48.094;7.970;2023-02-28T10:13:58;2.20;17.10
2409;DHT22;8463;48.094;7.970;2023-02-28T10:16:43;2.20;17.20
2409;DHT22;8463;48.094;7.970;2023-02-28T10:20:05;2.30;17.00
2409;DHT22;8463;48.094;7.970;2023-02-28T10:22:25;2.30;17.40
2409;DHT22;8463;48.094;7.970;2023-02-28T10:24:55;2.40;17.80
2409;DHT22;8463;48.094;7.970;2023-02-28T10:27:30;2.50;18.30
2409;DHT22;8463;48.094;7.970;2023-02-28T10:30:00;2.60;18.90
2409;DHT22;8463;48.094;7.970;2023-02-28T10:32:30;2.50;17.00
2409;DHT22;8463;48.094;7.970;2023-02-28T10:37:47;2.50;18.60
2409;DHT22;8463;48.094;7.970;2023-02-28T10:45:36;2.50;18.00
2409;DHT22;8463;48.094;7.970;2023-02-28T10:51:07;2.40;17.80
2409;DHT22;8463;48.094;7.970;2023-02-28T10:53:37;2.40;16.70
2409;DHT22;8463;48.094;7.970;2023-02-28T11:01:43;2.60;17.60
2409;DHT22;8463;48.094;7.970;2023-02-28T11:07:19;2.80;16.20
2409;DHT22;8463;48.094;7.970;2023-02-28T11:09:48;2.80;15.00
2409;DHT22;8463;48.094;7.970;2023-02-28T11:12:29;2.80;15.30
2409;DHT22;8463;48.094;7.970;2023-02-28T11:15:19;2.90;16.20
2409;DHT22;8463;48.094;7.970;2023-02-28T11:18:41;2.90;15.70
2409;DHT22;8463;48.094;7.970;2023-02-28T11:21:09;2.90;16.50
2409;DHT22;8463;48.094;7.970;2023-02-28T11:23:39;3.00;14.80
2409;DHT22;8463;48.094;7.970;2023-02-28T11:26:05;3.00;14.90
2409;DHT22;8463;48.094;7.970;2023-02-28T11:28:38;3.10;14.60
2409;DHT22;8463;48.094;7.970;2023-02-28T11:33:54;3.10;15.00
2409;DHT22;8463;48.094;7.970;2023-02-28T11:38:51;3.20;14.50
2409;DHT22;8463;48.094;7.970;2023-02-28T11:44:18;3.20;14.20
2409;DHT22;8463;48.094;7.970;2023-02-28T11:46:54;3.30;14.20
2409;DHT22;8463;48.094;7.970;2023-02-28T11:55:24;3.30;14.20
2409;DHT22;8463;48.094;7.970;2023-02-28T12:05:51;3.30;14.20
2409;DHT22;8463;48.094;7.970;2023-02-28T12:15:49;3.50;13.20
2409;DHT22;8463;48.094;7.970;2023-02-28T12:26:43;3.60;13.40
2409;DHT22;8463;48.094;7.970;2023-02-28T12:31:47;3.70;12.70
2409;DHT22;8463;48.094;7.970;2023-02-28T12:34:19;3.80;12.60
2409;DHT22;8463;48.094;7.970;2023-02-28T12:36:50;3.90;12.40
2409;DHT22;8463;48.094;7.970;2023-02-28T12:39:28;3.90;11.70
2409;DHT22;8463;48.094;7.970;2023-02-28T12:42:05;3.90;11.50
2409;DHT22;8463;48.094;7.970;2023-02-28T12:44:44;3.90;12.50
2409;DHT22;8463;48.094;7.970;2023-02-28T12:47:15;4.00;11.60
2409;DHT22;8463;48.094;7.970;2023-02-28T12:50:10;4.00;12.20
2409;DHT22;8463;48.094;7.970;2023-02-28T12:58:41;4.20;9.50
2409;DHT22;8463;48.094;7.970;2023-02-28T13:02:15;4.20;11.30
2409;DHT22;8463;48.094;7.970;2023-02-28T13:04:21;4.20;12.00
2409;DHT22;8463;48.094;7.970;2023-02-28T13:09:37;4.40;10.90
2409;DHT22;8463;48.094;7.970;2023-02-28T13:12:13;4.50;9.90
2409;DHT22;8463;48.094;7.970;2023-02-28T13:14:39;4.50;9.80
2409;DHT22;8463;48.094;7.970;2023-02-28T13:22:36;4.70;9.20
2409;DHT22;8463;48.094;7.970;2023-02-28T13:27:49;4.80;7.60
2409;DHT22;8463;48.094;7.970;2023-02-28T13:38:50;5.30;4.40
2409;DHT22;8463;48.094;7.970;2023-02-28T13:46:38;5.30;4.00
2409;DHT22;8463;48.094;7.970;2023-02-28T13:49:33;5.50;3.80
2409;DHT22;8463;48.094;7.970;2023-02-28T13:58:04;6.00;1.40
2409;DHT22;8463;48.094;7.970;2023-02-28T14:06:17;6.40;1.00
2409;DHT22;8463;48.094;7.970;2023-02-28T14:11:43;6.20;1.00
2409;DHT22;8463;48.094;7.970;2023-02-28T14:14:52;5.90;1.00
2409;DHT22;8463;48.094;7.970;2023-02-28T14:16:56;5.70;1.50
2409;DHT22;8463;48.094;7.970;2023-02-28T14:19:28;5.60;1.90
2409;DHT22;8463;48.094;7.970;2023-02-28T14:32:44;6.10;1.00
2409;DHT22;8463;48.094;7.970;2023-02-28T14:35:36;5.90;1.00
2409;DHT22;8463;48.094;7.970;2023-02-28T14:38:07;5.80;1.00
2409;DHT22;8463;48.094;7.970;2023-02-28T14:40:38;5.60;2.00
2409;DHT22;8463;48.094;7.970;2023-02-28T14:43:06;5.40;3.20
2409;DHT22;8463;48.094;7.970;2023-02-28T14:45:43;5.20;4.20
2409;DHT22;8463;48.094;7.970;2023-02-28T14:48:09;5.10;5.20
2409;DHT22;8463;48.094;7.970;2023-02-28T14:50:37;5.00;5.10
2409;DHT22;8463;48.094;7.970;2023-02-28T14:53:03;4.80;4.40
2409;DHT22;8463;48.094;7.970;2023-02-28T14:55:34;4.80;6.20
2409;DHT22;8463;48.094;7.970;2023-02-28T14:58:05;4.70;5.00
2409;DHT22;8463;48.094;7.970;2023-02-28T15:00:32;4.60;6.80
2409;DHT22;8463;48.094;7.970;2023-02-28T15:03:00;4.60;6.60
2409;DHT22;8463;48.094;7.970;2023-02-28T15:05:32;4.60;6.50
2409;DHT22;8463;48.094;7.970;2023-02-28T15:08:25;4.50;7.40
2409;DHT22;8463;48.094;7.970;2023-02-28T15:10:57;4.50;7.40
2409;DHT22;8463;48.094;7.970;2023-02-28T15:13:30;4.50;7.40
2409;DHT22;8463;48.094;7.970;2023-02-28T15:16:03;4.40;8.20
2409;DHT22;8463;48.094;7.970;2023-02-28T15:18:57;4.40;8.00
2409;DHT22;8463;48.094;7.970;2023-02-28T15:21:29;4.50;7.40
2409;DHT22;8463;48.094;7.970;2023-02-28T15:24:18;4.50;7.50
2409;DHT22;8463;48.094;7.970;2023-02-28T15:26:53;4.50;7.40
2409;DHT22;8463;48.094;7.970;2023-02-28T15:29:22;4.40;7.30
2409;DHT22;8463;48.094;7.970;2023-02-28T15:34:39;4.40;7.30
2409;DHT22;8463;48.094;7.970;2023-02-28T15:37:37;4.40;7.30
2409;DHT22;8463;48.094;7.970;2023-02-28T15:40:30;4.40;7.60
2409;DHT22;8463;48.094;7.970;2023-02-28T15:45:43;4.40;7.30
2409;DHT22;8463;48.094;7.970;2023-02-28T15:48:26;4.50;7.40
2409;DHT22;8463;48.094;7.970;2023-02-28T15:50:55;4.50;7.40
2409;DHT22;8463;48.094;7.970;2023-02-28T15:53:28;4.50;7.40
2409;DHT22;8463;48.094;7.970;2023-02-28T15:55:58;4.50;7.40
2409;DHT22;8463;48.094;7.970;2023-02-28T15:58:25;4.50;7.40
2409;DHT22;8463;48.094;7.970;2023-02-28T16:01:04;4.50;7.40
2409;DHT22;8463;48.094;7.970;2023-02-28T16:03:41;4.60;7.40
2409;DHT22;8463;48.094;7.970;2023-02-28T16:08:45;4.60;8.60
2409;DHT22;8463;48.094;7.970;2023-02-28T16:11:14;4.60;9.10
2409;DHT22;8463;48.094;7.970;2023-02-28T16:13:40;4.70;8.70
2409;DHT22;8463;48.094;7.970;2023-02-28T16:16:05;4.70;8.40
2409;DHT22;8463;48.094;7.970;2023-02-28T16:18:31;4.80;7.10
2409;DHT22;8463;48.094;7.970;2023-02-28T16:20:57;4.70;7.50
2409;DHT22;8463;48.094;7.970;2023-02-28T16:23:22;4.70;7.50
2409;DHT22;8463;48.094;7.970;2023-02-28T16:25:48;4.70;7.50
2409;DHT22;8463;48.094;7.970;2023-02-28T16:28:24;4.70;7.80
2409;DHT22;8463;48.094;7.970;2023-02-28T16:30:53;4.60;7.70
2409;DHT22;8463;48.094;7.970;2023-02-28T16:33:19;4.60;8.50
2409;DHT22;8463;48.094;7.970;2023-02-28T16:35:45;4.60;7.90
2409;DHT22;8463;48.094;7.970;2023-02-28T16:38:11;4.50;8.10
2409;DHT22;8463;48.094;7.970;2023-02-28T16:40:36;4.50;8.10
2409;DHT22;8463;48.094;7.970;2023-02-28T16:43:07;4.50;8.40
2409;DHT22;8463;48.094;7.970;2023-02-28T16:45:35;4.50;8.40
2409;DHT22;8463;48.094;7.970;2023-02-28T16:48:00;4.50;8.30
2409;DHT22;8463;48.094;7.970;2023-02-28T16:50:28;4.40;8.60
2409;DHT22;8463;48.094;7.970;2023-02-28T16:52:55;4.40;9.20
2409;DHT22;8463;48.094;7.970;2023-02-28T16:55:23;4.40;9.20
2409;DHT22;8463;48.094;7.970;2023-02-28T16:57:56;4.40;9.30
2409;DHT22;8463;48.094;7.970;2023-02-28T17:00:24;4.30;9.40
2409;DHT22;8463;48.094;7.970;2023-02-28T17:02:50;4.30;9.70
2409;DHT22;8463;48.094;7.970;2023-02-28T17:05:16;4.20;10.10
2409;DHT22;8463;48.094;7.970;2023-02-28T17:07:44;4.20;10.80
2409;DHT22;8463;48.094;7.970;2023-02-28T17:12:41;4.10;11.40
2409;DHT22;8463;48.094;7.970;2023-02-28T17:15:10;4.10;11.50
2409;DHT22;8463;48.094;7.970;2023-02-28T17:17:36;3.90;12.80
2409;DHT22;8463;48.094;7.970;2023-02-28T17:20:03;3.80;12.90
2409;DHT22;8463;48.094;7.970;2023-02-28T17:22:28;3.80;13.40
2409;DHT22;8463;48.094;7.970;2023-02-28T17:24:54;3.50;15.00
2409;DHT22;8463;48.094;7.970;2023-02-28T17:27:21;3.20;16.70
2409;DHT22;8463;48.094;7.970;2023-02-28T17:29:47;2.90;19.20
2409;DHT22;8463;48.094;7.970;2023-02-28T17:32:13;2.90;19.30
2409;DHT22;8463;48.094;7.970;2023-02-28T17:34:39;2.70;20.40
2409;DHT22;8463;48.094;7.970;2023-02-28T17:37:05;2.60;21.30
2409;DHT22;8463;48.094;7.970;2023-02-28T17:39:31;2.50;21.20
2409;DHT22;8463;48.094;7.970;2023-02-28T17:41:57;2.60;21.50
2409;DHT22;8463;48.094;7.970;2023-02-28T17:44:23;2.60;22.00
2409;DHT22;8463;48.094;7.970;2023-02-28T17:46:50;2.60;22.50
2409;DHT22;8463;48.094;7.970;2023-02-28T17:49:17;2.60;21.70
2409;DHT22;8463;48.094;7.970;2023-02-28T17:51:43;2.60;21.90
2409;DHT22;8463;48.094;7.970;2023-02-28T17:54:09;2.60;21.90
2409;DHT22;8463;48.094;7.970;2023-02-28T17:56:35;2.70;21.50
2409;DHT22;8463;48.094;7.970;2023-02-28T17:59:01;2.60;22.30
2409;DHT22;8463;48.094;7.970;2023-02-28T18:01:29;2.60;21.60
2409;DHT22;8463;48.094;7.970;2023-02-28T18:03:55;2.40;22.50
2409;DHT22;8463;48.094;7.970;2023-02-28T18:06:27;2.30;22.40
2409;DHT22;8463;48.094;7.970;2023-02-28T18:08:54;2.40;22.60
2409;DHT22;8463;48.094;7.970;2023-02-28T18:11:22;2.30;22.50
2409;DHT22;8463;48.094;7.970;2023-02-28T18:13:51;2.20;24.30
2409;DHT22;8463;48.094;7.970;2023-02-28T18:16:18;2.10;24.40
2409;DHT22;8463;48.094;7.970;2023-02-28T18:18:45;2.20;24.10
2409;DHT22;8463;48.094;7.970;2023-02-28T18:21:13;2.20;24.20
2409;DHT22;8463;48.094;7.970;2023-02-28T18:23:40;2.20;23.90
2409;DHT22;8463;48.094;7.970;2023-02-28T18:26:17;2.20;24.10
2409;DHT22;8463;48.094;7.970;2023-02-28T18:28:46;2.10;24.20
2409;DHT22;8463;48.094;7.970;2023-02-28T18:31:17;2.10;24.40
2409;DHT22;8463;48.094;7.970;2023-02-28T18:33:46;2.10;24.30
2409;DHT22;8463;48.094;7.970;2023-02-28T18:36:12;2.10;24.50
2409;DHT22;8463;48.094;7.970;2023-02-28T18:38:38;2.00;25.10
2409;DHT22;8463;48.094;7.970;2023-02-28T18:41:05;2.00;24.70
2409;DHT22;8463;48.094;7.970;2023-02-28T18:43:34;2.00;24.70
2409;DHT22;8463;48.094;7.970;2023-02-28T18:46:08;2.00;24.80
2409;DHT22;8463;48.094;7.970;2023-02-28T18:48:35;2.00;24.90
2409;DHT22;8463;48.094;7.970;2023-02-28T18:51:08;1.90;25.00
2409;DHT22;8463;48.094;7.970;2023-02-28T18:53:35;1.80;25.60
2409;DHT22;8463;48.094;7.970;2023-02-28T18:56:01;1.80;25.60
2409;DHT22;8463;48.094;7.970;2023-02-28T18:58:27;1.80;25.10
2409;DHT22;8463;48.094;7.970;2023-02-28T19:00:53;1.70;26.00
2409;DHT22;8463;48.094;7.970;2023-02-28T19:03:19;1.70;26.30
2409;DHT22;8463;48.094;7.970;2023-02-28T19:05:45;1.60;27.10
2409;DHT22;8463;48.094;7.970;2023-02-28T19:08:12;1.60;27.80
2409;DHT22;8463;48.094;7.970;2023-02-28T19:10:40;1.60;27.50
2409;DHT22;8463;48.094;7.970;2023-02-28T19:13:06;1.60;27.70
2409;DHT22;8463;48.094;7.970;2023-02-28T19:15:32;1.60;26.50
2409;DHT22;8463;48.094;7.970;2023-02-28T19:17:57;1.50;27.80
2409;DHT22;8463;48.094;7.970;2023-02-28T19:20:23;1.50;27.80
2409;DHT22;8463;48.094;7.970;2023-02-28T19:22:49;1.50;27.80
2409;DHT22;8463;48.094;7.970;2023-02-28T19:25:15;1.50;27.80
2409;DHT22;8463;48.094;7.970;2023-02-28T19:27:41;1.40;27.70